sensor_id;sensor_type;location;lat;lon;timestamp;pressure;altitude;pressure_sealevel;temperature;humidity
7918;BME280;4004;42.624;23.386;2022-11-15T00:00:45;94715.56;;;4.43;100.00
7918;BME280;4004;42.624;23.386;2022-11-15T00:03:13;94714.19;;;4.46;100.00
7918;BME280;4004;42.624;23.386;2022-11-15T00:05:41;94715.38;;;4.40;100.00
7918;BME280;4004;42.624;23.386;2022-11-15T00:08:08;94717.94;;;4.45;100.00
7918;BME280;4004;42.624;23.386;2022-11-15T00:10:35;94720.53;;;4.36;100.00
7918;BME280;4004;42.624;23.386;2022-11-15T00:13:04;94722.28;;;4.41;100.00
7918;BME280;4004;42.624;23.386;2022-11-15T00:15:31;94714.59;;;4.39;100.00
7918;BME280;4004;42.624;23.386;2022-11-15T00:17:58;94713.63;;;4.35;100.00
7918;BME280;4004;42.624;23.386;2022-11-15T00:20:24;94708.50;;;4.39;100.00
7918;BME280;4004;42.624;23.386;2022-11-15T00:22:52;94718.53;;;4.42;100.00
7918;BME280;4004;42.624;23.386;2022-11-15T00:25:19;94720.47;;;4.50;100.00
7918;BME280;4004;42.624;23.386;2022-11-15T00:27:46;94707.66;;;4.52;100.00
7918;BME280;4004;42.624;23.386;2022-11-15T00:30:13;94706.88;;;4.51;100.00
7918;BME280;4004;42.624;23.386;2022-11-15T00:32:39;94701.06;;;4.49;100.00
7918;BME280;4004;42.624;23.386;2022-11-15T00:35:07;94699.59;;;4.43;100.00
7918;BME280;4004;42.624;23.386;2022-11-15T00:37:33;94705.91;;;4.47;100.00
7918;BME280;4004;42.624;23.386;2022-11-15T00:40:02;94697.22;;;4.42;100.00
7918;BME280;4004;42.624;23.386;2022-11-15T00:42:29;94698.50;;;4.44;100.00
7918;BME280;4004;42.624;23.386;2022-11-15T00:44:55;94694.84;;;4.40;100.00
7918;BME280;4004;42.624;23.386;2022-11-15T00:47:22;94694.81;;;4.31;100.00
7918;BME280;4004;42.624;23.386;2022-11-15T00:49:49;94700.72;;;4.28;100.00
7918;BME280;4004;42.624;23.386;2022-11-15T00:52:16;94687.59;;;4.32;100.00
7918;BME280;4004;42.624;23.386;2022-11-15T00:54:42;94661.88;;;4.05;100.00
7918;BME280;4004;42.624;23.386;2022-11-15T00:57:10;94686.69;;;4.14;100.00
7918;BME280;4004;42.624;23.386;2022-11-15T00:59:37;94689.50;;;4.18;100.00
7918;BME280;4004;42.624;23.386;2022-11-15T01:02:04;94682.50;;;4.22;100.00
7918;BME280;4004;42.624;23.386;2022-11-15T01:04:30;94691.19;;;4.13;100.00
7918;BME280;4004;42.624;23.386;2022-11-15T01:06:57;94694.19;;;4.12;100.00
7918;BME280;4004;42.624;23.386;2022-11-15T01:09:24;94683.81;;;4.10;100.00
7918;BME280;4004;42.624;23.386;2022-11-15T01:11:51;94681.44;;;4.09;100.00
7918;BME280;4004;42.624;23.386;2022-11-15T01:14:19;94676.44;;;4.07;100.00
7918;BME280;4004;42.624;23.386;2022-11-15T01:16:46;94680.38;;;4.10;100.00
7918;BME280;4004;42.624;23.386;2022-11-15T01:19:13;94679.78;;;4.13;100.00
7918;BME280;4004;42.624;23.386;2022-11-15T01:21:40;94690.59;;;4.17;100.00
7918;BME280;4004;42.624;23.386;2022-11-15T01:24:07;94686.97;;;4.12;100.00
7918;BME280;4004;42.624;23.386;2022-11-15T01:26:35;94683.03;;;4.10;100.00
7918;BME280;4004;42.624;23.386;2022-11-15T01:29:02;94673.06;;;4.15;100.00
7918;BME280;4004;42.624;23.386;2022-11-15T01:31:30;94677.78;;;4.19;100.00
7918;BME280;4004;42.624;23.386;2022-11-15T01:33:57;94679.88;;;4.08;100.00
7918;BME280;4004;42.624;23.386;2022-11-15T01:36:24;94667.78;;;4.02;100.00
7918;BME280;4004;42.624;23.386;2022-11-15T01:38:53;94676.75;;;4.06;100.00
7918;BME280;4004;42.624;23.386;2022-11-15T01:41:22;94679.19;;;4.02;100.00
7918;BME280;4004;42.624;23.386;2022-11-15T01:43:52;94668.38;;;3.99;100.00
7918;BME280;4004;42.624;23.386;2022-11-15T01:46:27;94675.75;;;4.02;100.00
7918;BME280;4004;42.624;23.386;2022-11-15T01:48:59;94683.25;;;4.00;100.00
7918;BME280;4004;42.624;23.386;2022-11-15T01:51:28;94679.56;;;3.87;100.00
7918;BME280;4004;42.624;23.386;2022-11-15T01:53:59;94679.84;;;3.85;100.00
7918;BME280;4004;42.624;23.386;2022-11-15T01:56:30;94672.84;;;3.76;100.00
7918;BME280;4004;42.624;23.386;2022-11-15T01:59:02;94671.16;;;3.80;100.00
7918;BME280;4004;42.624;23.386;2022-11-15T02:01:32;94669.00;;;3.82;100.00
7918;BME280;4004;42.624;23.386;2022-11-15T02:04:04;94668.44;;;3.71;100.00
7918;BME280;4004;42.624;23.386;2022-11-15T02:06:34;94669.22;;;3.58;100.00
7918;BME280;4004;42.624;23.386;2022-11-15T02:09:02;94665.50;;;3.59;100.00
7918;BME280;4004;42.624;23.386;2022-11-15T02:11:29;94669.91;;;3.63;100.00
7918;BME280;4004;42.624;23.386;2022-11-15T02:13:58;94666.00;;;3.61;100.00
7918;BME280;4004;42.624;23.386;2022-11-15T02:16:33;94665.22;;;3.60;100.00
7918;BME280;4004;42.624;23.386;2022-11-15T02:19:22;94663.81;;;3.63;100.00
7918;BME280;4004;42.624;23.386;2022-11-15T02:22:02;94669.91;;;3.63;100.00
7918;BME280;4004;42.624;23.386;2022-11-15T02:25:00;94668.25;;;3.67;100.00
7918;BME280;4004;42.624;23.386;2022-11-15T02:27:49;94666.88;;;3.70;100.00
7918;BME280;4004;42.624;23.386;2022-11-15T02:30:29;94661.94;;;3.63;100.00
7918;BME280;4004;42.624;23.386;2022-11-15T02:33:02;94656.75;;;3.58;100.00
7918;BME280;4004;42.624;23.386;2022-11-15T02:35:36;94665.22;;;3.60;100.00
7918;BME280;4004;42.624;23.386;2022-11-15T02:38:15;94653.28;;;3.58;100.00
7918;BME280;4004;42.624;23.386;2022-11-15T02:40:48;94656.81;;;3.53;100.00
7918;BME280;4004;42.624;23.386;2022-11-15T02:43:24;94659.81;;;3.51;100.00
7918;BME280;4004;42.624;23.386;2022-11-15T02:46:15;94656.84;;;3.67;100.00
7918;BME280;4004;42.624;23.386;2022-11-15T02:48:45;94659.09;;;3.73;100.00
7918;BME280;4004;42.624;23.386;2022-11-15T02:51:12;94660.16;;;3.72;100.00
7918;BME280;4004;42.624;23.386;2022-11-15T02:53:40;94663.31;;;3.74;100.00
7918;BME280;4004;42.624;23.386;2022-11-15T02:56:09;94666.75;;;3.75;100.00
7918;BME280;4004;42.624;23.386;2022-11-15T02:58:54;94659.56;;;3.76;100.00
7918;BME280;4004;42.624;23.386;2022-11-15T03:01:35;94662.31;;;3.70;100.00
7918;BME280;4004;42.624;23.386;2022-11-15T03:04:14;94665.28;;;3.69;100.00
7918;BME280;4004;42.624;23.386;2022-11-15T03:06:47;94663.72;;;3.68;100.00
7918;BME280;4004;42.624;23.386;2022-11-15T03:09:24;94661.75;;;3.60;100.00
7918;BME280;4004;42.624;23.386;2022-11-15T03:11:57;94661.94;;;3.63;100.00
7918;BME280;4004;42.624;23.386;2022-11-15T03:14:29;94659.78;;;3.65;100.00
7918;BME280;4004;42.624;23.386;2022-11-15T03:17:03;94661.34;;;3.66;100.00
7918;BME280;4004;42.624;23.386;2022-11-15T03:19:37;94661.66;;;3.65;100.00
7918;BME280;4004;42.624;23.386;2022-11-15T03:22:10;94662.31;;;3.70;100.00
7918;BME280;4004;42.624;23.386;2022-11-15T03:24:38;94656.72;;;3.72;100.00
7918;BME280;4004;42.624;23.386;2022-11-15T03:27:06;94655.03;;;3.76;100.00
7918;BME280;4004;42.624;23.386;2022-11-15T03:29:37;94646.56;;;3.74;100.00
7918;BME280;4004;42.624;23.386;2022-11-15T03:32:10;94647.34;;;3.74;100.00
7918;BME280;4004;42.624;23.386;2022-11-15T03:34:42;94648.84;;;3.67;100.00
7918;BME280;4004;42.624;23.386;2022-11-15T03:37:13;94651.44;;;3.58;100.00
7918;BME280;4004;42.624;23.386;2022-11-15T03:39:41;94639.19;;;3.57;100.00
7918;BME280;4004;42.624;23.386;2022-11-15T03:42:17;94641.84;;;3.57;100.00
7918;BME280;4004;42.624;23.386;2022-11-15T03:44:51;94642.47;;;3.54;100.00
7918;BME280;4004;42.624;23.386;2022-11-15T03:47:27;94632.03;;;3.44;100.00
7918;BME280;4004;42.624;23.386;2022-11-15T03:49:58;94625.31;;;3.46;100.00
7918;BME280;4004;42.624;23.386;2022-11-15T03:52:31;94630.06;;;3.36;100.00
7918;BME280;4004;42.624;23.386;2022-11-15T03:55:00;94632.34;;;3.15;100.00
7918;BME280;4004;42.624;23.386;2022-11-15T03:57:28;94624.16;;;3.11;100.00
7918;BME280;4004;42.624;23.386;2022-11-15T03:59:55;94630.06;;;2.94;100.00
7918;BME280;4004;42.624;23.386;2022-11-15T04:02:23;94617.75;;;2.84;100.00
7918;BME280;4004;42.624;23.386;2022-11-15T04:04:49;94624.81;;;2.61;100.00
7918;BME280;4004;42.624;23.386;2022-11-15T04:07:16;94629.47;;;2.37;100.00
7918;BME280;4004;42.624;23.386;2022-11-15T04:09:43;94627.13;;;2.16;100.00
7918;BME280;4004;42.624;23.386;2022-11-15T04:12:27;94624.47;;;2.16;100.00
7918;BME280;4004;42.624;23.386;2022-11-15T04:14:58;94629.25;;;2.00;100.00
7918;BME280;4004;42.624;23.386;2022-11-15T04:17:38;94627.44;;;1.96;100.00
7918;BME280;4004;42.624;23.386;2022-11-15T04:20:08;94617.84;;;1.81;100.00
7918;BME280;4004;42.624;23.386;2022-11-15T04:22:54;94611.53;;;1.77;100.00
7918;BME280;4004;42.624;23.386;2022-11-15T04:25:39;94610.09;;;1.84;100.00
7918;BME280;4004;42.624;23.386;2022-11-15T04:28:06;94609.97;;;1.76;100.00
7918;BME280;4004;42.624;23.386;2022-11-15T04:30:33;94603.84;;;1.75;100.00
7918;BME280;4004;42.624;23.386;2022-11-15T04:33:01;94604.09;;;1.79;100.00
7918;BME280;4004;42.624;23.386;2022-11-15T04:35:28;94606.38;;;1.85;100.00
7918;BME280;4004;42.624;23.386;2022-11-15T04:37:55;94603.94;;;1.89;100.00
7918;BME280;4004;42.624;23.386;2022-11-15T04:40:22;94607.06;;;1.91;100.00
7918;BME280;4004;42.624;23.386;2022-11-15T04:42:49;94615.84;;;1.92;100.00
7918;BME280;4004;42.624;23.386;2022-11-15T04:45:15;94610.72;;;1.95;100.00
7918;BME280;4004;42.624;23.386;2022-11-15T04:47:43;94610.94;;;1.99;100.00
7918;BME280;4004;42.624;23.386;2022-11-15T04:50:11;94610.00;;;2.08;100.00
7918;BME280;4004;42.624;23.386;2022-11-15T04:52:40;94607.69;;;2.21;100.00
7918;BME280;4004;42.624;23.386;2022-11-15T04:55:07;94610.47;;;2.30;100.00
7918;BME280;4004;42.624;23.386;2022-11-15T04:57:34;94610.50;;;2.43;100.00
7918;BME280;4004;42.624;23.386;2022-11-15T05:00:02;94614.25;;;2.42;100.00
7918;BME280;4004;42.624;23.386;2022-11-15T05:02:29;94613.50;;;2.56;100.00
7918;BME280;4004;42.624;23.386;2022-11-15T05:05:17;94615.38;;;2.69;100.00
7918;BME280;4004;42.624;23.386;2022-11-15T05:07:43;94602.81;;;2.75;100.00
7918;BME280;4004;42.624;23.386;2022-11-15T05:10:09;94618.72;;;2.75;100.00
7918;BME280;4004;42.624;23.386;2022-11-15T05:12:36;94613.91;;;2.77;100.00
7918;BME280;4004;42.624;23.386;2022-11-15T05:15:04;94621.50;;;2.83;100.00
7918;BME280;4004;42.624;23.386;2022-11-15T05:17:30;94610.19;;;2.92;100.00
7918;BME280;4004;42.624;23.386;2022-11-15T05:19:57;94612.47;;;2.98;100.00
7918;BME280;4004;42.624;23.386;2022-11-15T05:22:25;94615.03;;;3.03;100.00
7918;BME280;4004;42.624;23.386;2022-11-15T05:24:53;94614.72;;;3.05;100.00
7918;BME280;4004;42.624;23.386;2022-11-15T05:27:19;94620.03;;;3.05;100.00
7918;BME280;4004;42.624;23.386;2022-11-15T05:29:46;94619.66;;;3.11;100.00
7918;BME280;4004;42.624;23.386;2022-11-15T05:32:13;94620.81;;;3.19;100.00
7918;BME280;4004;42.624;23.386;2022-11-15T05:34:40;94620.63;;;3.29;100.00
7918;BME280;4004;42.624;23.386;2022-11-15T05:37:07;94623.09;;;3.26;100.00
7918;BME280;4004;42.624;23.386;2022-11-15T05:39:35;94614.72;;;3.32;100.00
7918;BME280;4004;42.624;23.386;2022-11-15T05:42:05;94609.59;;;3.36;100.00
7918;BME280;4004;42.624;23.386;2022-11-15T05:44:34;94618.16;;;3.33;100.00
7918;BME280;4004;42.624;23.386;2022-11-15T05:47:03;94616.38;;;3.42;100.00
7918;BME280;4004;42.624;23.386;2022-11-15T05:49:31;94621.59;;;3.47;100.00
7918;BME280;4004;42.624;23.386;2022-11-15T05:52:03;94623.53;;;3.56;100.00
7918;BME280;4004;42.624;23.386;2022-11-15T05:54:31;94627.66;;;3.62;100.00
7918;BME280;4004;42.624;23.386;2022-11-15T05:57:00;94617.34;;;3.60;100.00
7918;BME280;4004;42.624;23.386;2022-11-15T05:59:28;94622.72;;;3.69;100.00
7918;BME280;4004;42.624;23.386;2022-11-15T06:01:55;94623.63;;;3.78;100.00
7918;BME280;4004;42.624;23.386;2022-11-15T06:04:22;94617.19;;;3.79;100.00
7918;BME280;4004;42.624;23.386;2022-11-15T06:06:49;94617.75;;;3.90;100.00
7918;BME280;4004;42.624;23.386;2022-11-15T06:09:16;94615.19;;;3.99;100.00
7918;BME280;4004;42.624;23.386;2022-11-15T06:11:42;94622.06;;;4.00;100.00
7918;BME280;4004;42.624;23.386;2022-11-15T06:14:10;94623.81;;;4.04;100.00
7918;BME280;4004;42.624;23.386;2022-11-15T06:16:37;94626.88;;;4.11;100.00
7918;BME280;4004;42.624;23.386;2022-11-15T06:19:05;94632.72;;;4.22;100.00
7918;BME280;4004;42.624;23.386;2022-11-15T06:21:32;94621.66;;;4.29;100.00
7918;BME280;4004;42.624;23.386;2022-11-15T06:23:59;94636.41;;;4.35;100.00
7918;BME280;4004;42.624;23.386;2022-11-15T06:26:25;94635.69;;;4.43;100.00
7918;BME280;4004;42.624;23.386;2022-11-15T06:28:52;94634.38;;;4.54;100.00
7918;BME280;4004;42.624;23.386;2022-11-15T06:31:20;94627.41;;;4.67;100.00
7918;BME280;4004;42.624;23.386;2022-11-15T06:33:47;94627.25;;;4.72;100.00
7918;BME280;4004;42.624;23.386;2022-11-15T06:36:15;94628.97;;;4.68;100.00
7918;BME280;4004;42.624;23.386;2022-11-15T06:38:42;94621.19;;;4.81;100.00
7918;BME280;4004;42.624;23.386;2022-11-15T06:41:10;94622.47;;;4.83;100.00
7918;BME280;4004;42.624;23.386;2022-11-15T06:43:37;94626.72;;;4.93;100.00
7918;BME280;4004;42.624;23.386;2022-11-15T06:46:05;94627.00;;;4.83;100.00
7918;BME280;4004;42.624;23.386;2022-11-15T06:48:33;94624.22;;;4.88;100.00
7918;BME280;4004;42.624;23.386;2022-11-15T06:51:02;94628.28;;;4.85;100.00
7918;BME280;4004;42.624;23.386;2022-11-15T06:53:30;94623.09;;;4.89;100.00
7918;BME280;4004;42.624;23.386;2022-11-15T06:55:59;94615.28;;;4.92;100.00
7918;BME280;4004;42.624;23.386;2022-11-15T06:58:25;94620.47;;;4.97;100.00
7918;BME280;4004;42.624;23.386;2022-11-15T07:00:52;94630.88;;;5.08;100.00
7918;BME280;4004;42.624;23.386;2022-11-15T07:03:19;94629.72;;;5.00;100.00
7918;BME280;4004;42.624;23.386;2022-11-15T07:05:52;94629.91;;;5.04;100.00
7918;BME280;4004;42.624;23.386;2022-11-15T07:08:20;94626.09;;;4.87;100.00
7918;BME280;4004;42.624;23.386;2022-11-15T07:10:46;94620.47;;;4.97;100.00
7918;BME280;4004;42.624;23.386;2022-11-15T07:13:13;94617.56;;;5.08;100.00
7918;BME280;4004;42.624;23.386;2022-11-15T07:15:40;94619.63;;;5.19;100.00
7918;BME280;4004;42.624;23.386;2022-11-15T07:18:06;94612.28;;;5.25;100.00
7918;BME280;4004;42.624;23.386;2022-11-15T07:20:33;94612.16;;;5.30;100.00
7918;BME280;4004;42.624;23.386;2022-11-15T07:23:02;94608.38;;;5.31;100.00
7918;BME280;4004;42.624;23.386;2022-11-15T07:25:29;94608.69;;;5.30;100.00
7918;BME280;4004;42.624;23.386;2022-11-15T07:27:56;94607.63;;;5.39;100.00
7918;BME280;4004;42.624;23.386;2022-11-15T07:30:24;94606.22;;;5.42;100.00
7918;BME280;4004;42.624;23.386;2022-11-15T07:32:52;94602.59;;;5.47;100.00
7918;BME280;4004;42.624;23.386;2022-11-15T07:35:19;94606.81;;;5.30;100.00
7918;BME280;4004;42.624;23.386;2022-11-15T07:37:53;94605.56;;;5.28;100.00
7918;BME280;4004;42.624;23.386;2022-11-15T07:40:21;94609.91;;;5.15;100.00
7918;BME280;4004;42.624;23.386;2022-11-15T07:42:48;94608.56;;;4.95;100.00
7918;BME280;4004;42.624;23.386;2022-11-15T07:45:22;94607.13;;;4.89;100.00
7918;BME280;4004;42.624;23.386;2022-11-15T07:47:51;94618.28;;;4.99;100.00
7918;BME280;4004;42.624;23.386;2022-11-15T07:50:18;94615.38;;;5.10;100.00
7918;BME280;4004;42.624;23.386;2022-11-15T07:52:45;94615.19;;;5.06;100.00
7918;BME280;4004;42.624;23.386;2022-11-15T07:55:12;94598.25;;;5.02;100.00
7918;BME280;4004;42.624;23.386;2022-11-15T07:57:40;94601.91;;;5.15;100.00
7918;BME280;4004;42.624;23.386;2022-11-15T08:00:07;94609.75;;;5.20;100.00
7918;BME280;4004;42.624;23.386;2022-11-15T08:02:34;94608.97;;;5.19;100.00
7918;BME280;4004;42.624;23.386;2022-11-15T08:05:01;94612.22;;;5.08;100.00
7918;BME280;4004;42.624;23.386;2022-11-15T08:07:29;94606.16;;;5.16;100.00
7918;BME280;4004;42.624;23.386;2022-11-15T08:09:56;94603.97;;;5.18;100.00
7918;BME280;4004;42.624;23.386;2022-11-15T08:12:23;94603.53;;;5.25;100.00
7918;BME280;4004;42.624;23.386;2022-11-15T08:14:51;94606.34;;;5.28;100.00
7918;BME280;4004;42.624;23.386;2022-11-15T08:17:18;94601.00;;;5.28;100.00
7918;BME280;4004;42.624;23.386;2022-11-15T08:19:45;94602.75;;;5.33;100.00
7918;BME280;4004;42.624;23.386;2022-11-15T08:22:11;94596.34;;;5.43;100.00
7918;BME280;4004;42.624;23.386;2022-11-15T08:24:38;94597.44;;;5.50;100.00
7918;BME280;4004;42.624;23.386;2022-11-15T08:27:06;94566.84;;;5.39;100.00
7918;BME280;4004;42.624;23.386;2022-11-15T08:29:40;94602.03;;;5.67;100.00
7918;BME280;4004;42.624;23.386;2022-11-15T08:32:09;94598.09;;;5.65;100.00
7918;BME280;4004;42.624;23.386;2022-11-15T08:34:36;94591.38;;;5.67;100.00
7918;BME280;4004;42.624;23.386;2022-11-15T08:37:03;94583.50;;;5.62;100.00
7918;BME280;4004;42.624;23.386;2022-11-15T08:39:30;94587.44;;;5.82;100.00
7918;BME280;4004;42.624;23.386;2022-11-15T08:41:57;94595.94;;;5.93;100.00
7918;BME280;4004;42.624;23.386;2022-11-15T08:44:23;94593.94;;;5.98;100.00
7918;BME280;4004;42.624;23.386;2022-11-15T08:46:50;94593.75;;;5.95;100.00
7918;BME280;4004;42.624;23.386;2022-11-15T08:49:18;94587.00;;;6.06;100.00
7918;BME280;4004;42.624;23.386;2022-11-15T08:51:45;94589.38;;;6.08;100.00
7918;BME280;4004;42.624;23.386;2022-11-15T08:54:12;94583.34;;;5.85;100.00
7918;BME280;4004;42.624;23.386;2022-11-15T08:56:38;94588.84;;;5.79;100.00
7918;BME280;4004;42.624;23.386;2022-11-15T08:59:05;94576.16;;;5.94;100.00
7918;BME280;4004;42.624;23.386;2022-11-15T09:01:32;94574.13;;;6.08;100.00
7918;BME280;4004;42.624;23.386;2022-11-15T09:03:59;94571.78;;;6.15;100.00
7918;BME280;4004;42.624;23.386;2022-11-15T09:06:27;94567.38;;;6.19;100.00
7918;BME280;4004;42.624;23.386;2022-11-15T09:08:53;94562.03;;;6.28;100.00
7918;BME280;4004;42.624;23.386;2022-11-15T09:11:20;94562.34;;;6.18;100.00
7918;BME280;4004;42.624;23.386;2022-11-15T09:13:48;94550.59;;;6.01;100.00
7918;BME280;4004;42.624;23.386;2022-11-15T09:16:15;94553.56;;;6.09;100.00
7918;BME280;4004;42.624;23.386;2022-11-15T09:18:42;94546.47;;;6.30;100.00
7918;BME280;4004;42.624;23.386;2022-11-15T09:21:09;94532.22;;;6.09;100.00
7918;BME280;4004;42.624;23.386;2022-11-15T09:23:37;94545.41;;;6.22;100.00
7918;BME280;4004;42.624;23.386;2022-11-15T09:26:05;94554.00;;;6.37;100.00
7918;BME280;4004;42.624;23.386;2022-11-15T09:28:33;94546.78;;;6.37;100.00
7918;BME280;4004;42.624;23.386;2022-11-15T09:31:02;94547.88;;;6.45;100.00
7918;BME280;4004;42.624;23.386;2022-11-15T09:33:30;94538.06;;;6.58;100.00
7918;BME280;4004;42.624;23.386;2022-11-15T09:36:00;94536.97;;;6.68;100.00
7918;BME280;4004;42.624;23.386;2022-11-15T09:38:28;94532.84;;;6.79;100.00
7918;BME280;4004;42.624;23.386;2022-11-15T09:41:13;94524.41;;;6.98;100.00
7918;BME280;4004;42.624;23.386;2022-11-15T09:43:49;94517.41;;;6.76;100.00
7918;BME280;4004;42.624;23.386;2022-11-15T09:46:24;94528.38;;;6.92;100.00
7918;BME280;4004;42.624;23.386;2022-11-15T09:48:54;94517.59;;;7.09;100.00
7918;BME280;4004;42.624;23.386;2022-11-15T09:51:28;94513.31;;;7.17;100.00
7918;BME280;4004;42.624;23.386;2022-11-15T09:54:03;94515.16;;;7.25;100.00
7918;BME280;4004;42.624;23.386;2022-11-15T09:56:35;94515.16;;;7.46;100.00
7918;BME280;4004;42.624;23.386;2022-11-15T09:59:18;94513.94;;;7.43;100.00
7918;BME280;4004;42.624;23.386;2022-11-15T10:01:56;94501.06;;;7.58;100.00
7918;BME280;4004;42.624;23.386;2022-11-15T10:04:26;94506.75;;;7.77;100.00
7918;BME280;4004;42.624;23.386;2022-11-15T10:07:00;94503.63;;;7.75;100.00
7918;BME280;4004;42.624;23.386;2022-11-15T10:09:34;94502.25;;;7.69;100.00
7918;BME280;4004;42.624;23.386;2022-11-15T10:12:06;94499.16;;;7.67;100.00
7918;BME280;4004;42.624;23.386;2022-11-15T10:14:34;94485.03;;;7.58;100.00
7918;BME280;4004;42.624;23.386;2022-11-15T10:17:37;94483.53;;;7.48;100.00
7918;BME280;4004;42.624;23.386;2022-11-15T10:20:11;94479.63;;;7.45;100.00
7918;BME280;4004;42.624;23.386;2022-11-15T10:22:41;94479.41;;;7.30;100.00
7918;BME280;4004;42.624;23.386;2022-11-15T10:25:16;94479.84;;;7.11;100.00
7918;BME280;4004;42.624;23.386;2022-11-15T10:27:52;94473.31;;;6.99;100.00
7918;BME280;4004;42.624;23.386;2022-11-15T10:30:20;94465.53;;;6.85;100.00
7918;BME280;4004;42.624;23.386;2022-11-15T10:32:47;94476.25;;;6.77;100.00
7918;BME280;4004;42.624;23.386;2022-11-15T10:35:20;94460.41;;;6.72;100.00
7918;BME280;4004;42.624;23.386;2022-11-15T10:37:47;94454.94;;;6.59;100.00
7918;BME280;4004;42.624;23.386;2022-11-15T10:40:20;94444.63;;;6.49;100.00
7918;BME280;4004;42.624;23.386;2022-11-15T10:43:04;94438.66;;;6.52;100.00
7918;BME280;4004;42.624;23.386;2022-11-15T10:45:33;94438.50;;;6.49;100.00
7918;BME280;4004;42.624;23.386;2022-11-15T10:48:20;94435.22;;;6.43;100.00
7918;BME280;4004;42.624;23.386;2022-11-15T10:50:49;94425.63;;;6.42;100.00
7918;BME280;4004;42.624;23.386;2022-11-15T10:53:21;94426.75;;;6.41;100.00
7918;BME280;4004;42.624;23.386;2022-11-15T10:55:50;94426.56;;;6.46;100.00
7918;BME280;4004;42.624;23.386;2022-11-15T10:58:30;94430.22;;;6.33;100.00
7918;BME280;4004;42.624;23.386;2022-11-15T11:01:09;94426.88;;;6.44;100.00
7918;BME280;4004;42.624;23.386;2022-11-15T11:03:37;94414.81;;;6.38;100.00
7918;BME280;4004;42.624;23.386;2022-11-15T11:06:07;94397.09;;;6.34;100.00
7918;BME280;4004;42.624;23.386;2022-11-15T11:08:34;94398.00;;;6.38;100.00
7918;BME280;4004;42.624;23.386;2022-11-15T11:11:03;94398.94;;;6.42;100.00
7918;BME280;4004;42.624;23.386;2022-11-15T11:13:33;94389.06;;;6.42;100.00
7918;BME280;4004;42.624;23.386;2022-11-15T11:16:15;94388.97;;;6.51;100.00
7918;BME280;4004;42.624;23.386;2022-11-15T11:18:49;94390.06;;;6.59;100.00
7918;BME280;4004;42.624;23.386;2022-11-15T11:21:24;94381.28;;;6.58;100.00
7918;BME280;4004;42.624;23.386;2022-11-15T11:23:54;94376.03;;;6.62;100.00
7918;BME280;4004;42.624;23.386;2022-11-15T11:26:38;94380.41;;;6.67;100.00
7918;BME280;4004;42.624;23.386;2022-11-15T11:29:20;94361.53;;;6.72;100.00
7918;BME280;4004;42.624;23.386;2022-11-15T11:31:58;94366.50;;;6.82;100.00
7918;BME280;4004;42.624;23.386;2022-11-15T11:34:37;94355.69;;;6.78;100.00
7918;BME280;4004;42.624;23.386;2022-11-15T11:37:12;94349.03;;;6.84;100.00
7918;BME280;4004;42.624;23.386;2022-11-15T11:39:52;94350.41;;;6.91;100.00
7918;BME280;4004;42.624;23.386;2022-11-15T11:42:29;94341.00;;;6.84;100.00
7918;BME280;4004;42.624;23.386;2022-11-15T11:45:06;94341.84;;;6.97;100.00
7918;BME280;4004;42.624;23.386;2022-11-15T11:47:46;94344.31;;;7.02;100.00
7918;BME280;4004;42.624;23.386;2022-11-15T11:50:17;94336.50;;;6.97;100.00
7918;BME280;4004;42.624;23.386;2022-11-15T11:52:59;94336.84;;;6.96;100.00
7918;BME280;4004;42.624;23.386;2022-11-15T11:55:31;94327.66;;;7.05;100.00
7918;BME280;4004;42.624;23.386;2022-11-15T11:58:04;94319.19;;;7.03;100.00
7918;BME280;4004;42.624;23.386;2022-11-15T12:00:41;94327.66;;;7.05;100.00
7918;BME280;4004;42.624;23.386;2022-11-15T12:03:13;94317.88;;;7.10;100.00
7918;BME280;4004;42.624;23.386;2022-11-15T12:05:43;94307.88;;;7.19;100.00
7918;BME280;4004;42.624;23.386;2022-11-15T12:08:22;94311.84;;;7.13;100.00
7918;BME280;4004;42.624;23.386;2022-11-15T12:10:55;94293.31;;;7.29;100.00
7918;BME280;4004;42.624;23.386;2022-11-15T12:13:25;94295.34;;;7.32;100.00
7918;BME280;4004;42.624;23.386;2022-11-15T12:15:58;94290.31;;;7.30;100.00
7918;BME280;4004;42.624;23.386;2022-11-15T12:18:26;94287.41;;;7.23;100.00
7918;BME280;4004;42.624;23.386;2022-11-15T12:20:57;94287.50;;;7.26;100.00
7918;BME280;4004;42.624;23.386;2022-11-15T12:23:27;94286.06;;;7.29;100.00
7918;BME280;4004;42.624;23.386;2022-11-15T12:25:58;94276.63;;;7.32;100.00
7918;BME280;4004;42.624;23.386;2022-11-15T12:28:32;94282.66;;;7.41;100.00
7918;BME280;4004;42.624;23.386;2022-11-15T12:31:06;94277.94;;;7.38;100.00
7918;BME280;4004;42.624;23.386;2022-11-15T12:33:38;94272.56;;;7.59;100.00
7918;BME280;4004;42.624;23.386;2022-11-15T12:36:10;94267.09;;;7.67;100.00
7918;BME280;4004;42.624;23.386;2022-11-15T12:38:53;94263.22;;;7.65;100.00
7918;BME280;4004;42.624;23.386;2022-11-15T12:41:21;94257.31;;;7.72;100.00
7918;BME280;4004;42.624;23.386;2022-11-15T12:43:48;94252.81;;;7.76;100.00
7918;BME280;4004;42.624;23.386;2022-11-15T12:46:23;94251.63;;;7.85;100.00
7918;BME280;4004;42.624;23.386;2022-11-15T12:49:11;94248.03;;;7.94;100.00
7918;BME280;4004;42.624;23.386;2022-11-15T12:52:07;94256.06;;;8.06;100.00
7918;BME280;4004;42.624;23.386;2022-11-15T12:55:02;94251.06;;;8.04;100.00
7918;BME280;4004;42.624;23.386;2022-11-15T12:57:48;94245.50;;;8.09;100.00
7918;BME280;4004;42.624;23.386;2022-11-15T13:00:42;94243.34;;;8.15;100.00
7918;BME280;4004;42.624;23.386;2022-11-15T13:03:34;94242.69;;;8.18;100.00
7918;BME280;4004;42.624;23.386;2022-11-15T13:06:07;94239.53;;;8.28;100.00
7918;BME280;4004;42.624;23.386;2022-11-15T13:08:46;94243.22;;;8.24;100.00
7918;BME280;4004;42.624;23.386;2022-11-15T13:11:42;94238.00;;;8.27;100.00
7918;BME280;4004;42.624;23.386;2022-11-15T13:14:38;94231.63;;;8.32;100.00
7918;BME280;4004;42.624;23.386;2022-11-15T13:17:16;94226.25;;;8.32;100.00
7918;BME280;4004;42.624;23.386;2022-11-15T13:19:55;94228.69;;;8.37;100.00
7918;BME280;4004;42.624;23.386;2022-11-15T13:22:24;94225.47;;;8.44;100.00
7918;BME280;4004;42.624;23.386;2022-11-15T13:25:15;94228.38;;;8.39;100.00
7918;BME280;4004;42.624;23.386;2022-11-15T13:27:44;94219.91;;;8.37;100.00
7918;BME280;4004;42.624;23.386;2022-11-15T13:30:18;94224.25;;;8.41;100.00